createdAt,value
2023-04-13T00:01:11.409Z,95235.22
2023-04-13T00:03:40.410Z,95230.94
2023-04-13T00:06:11.571Z,95227.50
2023-04-13T00:08:45.138Z,95231.16
2023-04-13T00:11:14.451Z,95219.75
2023-04-13T00:13:43.129Z,95219.97
2023-04-13T00:16:13.782Z,95220.16
2023-04-13T00:18:42.324Z,95213.84
2023-04-13T00:21:10.676Z,95203.28
2023-04-13T00:23:39.543Z,95211.41
2023-04-13T00:26:08.904Z,95212.41
2023-04-13T00:28:37.396Z,95215.50
2023-04-13T00:31:06.865Z,95221.78
2023-04-13T00:33:36.691Z,95223.78
2023-04-13T00:36:05.433Z,95218.50
2023-04-13T00:38:33.996Z,95233.34
2023-04-13T00:41:03.947Z,95242.91
2023-04-13T00:43:32.330Z,95252.16
2023-04-13T00:46:02.013Z,95257.00
2023-04-13T00:48:30.812Z,95268.78
2023-04-13T00:51:00.547Z,95251.16
2023-04-13T00:53:29.635Z,95289.75
2023-04-13T00:55:58.351Z,95294.50
2023-04-13T00:58:27.614Z,95302.03
2023-04-13T01:00:58.881Z,95303.94
2023-04-13T01:03:27.420Z,95317.06
2023-04-13T01:06:05.301Z,95315.72
2023-04-13T01:08:39.701Z,95318.72
2023-04-13T01:11:14.439Z,95331.00
2023-04-13T01:13:48.512Z,95340.94
2023-04-13T01:16:20.994Z,95353.75
2023-04-13T01:18:55.103Z,95359.72
2023-04-13T01:21:27.769Z,95351.03
2023-04-13T01:24:11.344Z,95360.16
2023-04-13T01:26:54.406Z,95357.75
2023-04-13T01:29:25.149Z,95362.09
2023-04-13T01:31:54.370Z,95369.19
2023-04-13T01:34:24.348Z,95365.56
2023-04-13T01:36:52.965Z,95373.19
2023-04-13T01:39:21.715Z,95373.66
2023-04-13T01:41:50.812Z,95373.88
2023-04-13T01:44:19.533Z,95375.66
2023-04-13T01:46:54.339Z,95373.03
2023-04-13T01:49:24.143Z,95372.84
2023-04-13T01:51:54.923Z,95365.50
2023-04-13T01:54:27.321Z,95368.59
2023-04-13T01:57:00.252Z,95370.59
2023-04-13T01:59:28.881Z,95365.69
2023-04-13T02:01:59.531Z,95378.03
2023-04-13T02:04:28.285Z,95371.88
2023-04-13T02:06:56.680Z,95374.03
2023-04-13T02:09:25.206Z,95370.59
2023-04-13T02:11:54.219Z,95376.50
2023-04-13T02:14:22.548Z,95384.88
2023-04-13T02:16:50.990Z,95394.88
2023-04-13T02:19:21.828Z,95392.88
2023-04-13T02:21:50.218Z,95399.31
2023-04-13T02:24:18.856Z,95395.50
2023-04-13T02:26:49.264Z,95392.72
2023-04-13T02:29:17.568Z,95398.09
2023-04-13T02:31:46.340Z,95397.63
2023-04-13T02:34:14.775Z,95386.41
2023-04-13T02:36:45.326Z,95393.28
2023-04-13T02:39:13.820Z,95391.84
2023-04-13T02:41:43.190Z,95391.03
2023-04-13T02:44:12.588Z,95391.31
2023-04-13T02:46:41.186Z,95394.41
2023-04-13T02:49:10.130Z,95386.53
2023-04-13T02:51:38.534Z,95385.19
2023-04-13T02:54:15.728Z,95389.31
2023-04-13T02:56:44.845Z,95381.41
2023-04-13T02:59:13.218Z,95383.03
2023-04-13T03:01:42.246Z,95375.31
2023-04-13T03:04:12.018Z,95372.88
2023-04-13T03:06:42.730Z,95359.88
2023-04-13T03:09:12.032Z,95348.72
2023-04-13T03:11:42.485Z,95347.88
2023-04-13T03:14:13.264Z,95352.97
2023-04-13T03:16:41.901Z,95350.72
2023-04-13T03:19:11.968Z,95349.88
2023-04-13T03:21:41.491Z,95354.78
2023-04-13T03:24:11.740Z,95359.19
2023-04-13T03:26:41.461Z,95353.94
2023-04-13T03:29:09.869Z,95355.56
2023-04-13T03:31:38.276Z,95360.66
2023-04-13T03:34:06.676Z,95371.00
2023-04-13T03:36:43.624Z,95365.56
2023-04-13T03:39:12.899Z,95368.22
2023-04-13T03:41:42.693Z,95368.53
2023-04-13T03:44:11.583Z,95367.09
2023-04-13T03:46:40.180Z,95366.06
2023-04-13T03:49:13.006Z,95362.34
2023-04-13T03:51:41.518Z,95361.22
2023-04-13T03:54:10.781Z,95352.50
2023-04-13T03:56:39.201Z,95346.91
2023-04-13T03:59:11.932Z,95349.06
2023-04-13T04:01:40.550Z,95348.09
2023-04-13T04:04:09.112Z,95356.50
2023-04-13T04:06:37.881Z,95353.56
2023-04-13T04:09:06.784Z,95354.09
2023-04-13T04:11:35.214Z,95356.75
2023-04-13T04:14:03.932Z,95352.19
2023-04-13T04:16:33.705Z,95362.69
2023-04-13T04:19:02.173Z,95366.81
2023-04-13T04:21:34.294Z,95353.34
2023-04-13T04:24:02.786Z,95363.38
2023-04-13T04:26:32.276Z,95355.50
2023-04-13T04:29:02.237Z,95347.78
2023-04-13T04:31:37.000Z,95356.00
2023-04-13T04:34:07.198Z,95354.19
2023-04-13T04:36:36.378Z,95349.94
2023-04-13T04:39:07.758Z,95344.00
2023-04-13T04:41:37.953Z,95350.91
2023-04-13T04:44:08.845Z,95356.50
2023-04-13T04:46:41.682Z,95356.50
2023-04-13T04:49:12.347Z,95356.34
2023-04-13T04:51:40.687Z,95356.19
2023-04-13T04:54:09.087Z,95360.47
2023-04-13T04:56:39.841Z,95366.19
2023-04-13T04:59:08.295Z,95371.25
2023-04-13T05:01:36.847Z,95372.09
2023-04-13T05:04:05.600Z,95375.38
2023-04-13T05:06:35.572Z,95372.56
2023-04-13T05:09:05.975Z,95366.66
2023-04-13T05:11:34.744Z,95370.59
2023-04-13T05:14:03.125Z,95375.69
2023-04-13T05:16:31.803Z,95376.16
2023-04-13T05:19:00.396Z,95380.91
2023-04-13T05:21:28.847Z,95381.88
2023-04-13T05:23:58.591Z,95369.69
2023-04-13T05:26:27.258Z,95376.09
2023-04-13T05:28:55.688Z,95383.28
2023-04-13T05:31:24.851Z,95387.88
2023-04-13T05:33:53.257Z,95391.47
2023-04-13T05:36:21.667Z,95391.75
2023-04-13T05:38:56.942Z,95385.81
2023-04-13T05:41:27.523Z,95388.72
2023-04-13T05:43:56.146Z,95392.66
2023-04-13T05:46:24.528Z,95397.41
2023-04-13T05:48:52.935Z,95400.06
2023-04-13T05:51:21.492Z,95404.47
2023-04-13T05:53:49.868Z,95416.50
2023-04-13T05:56:18.277Z,95407.59
2023-04-13T05:58:48.461Z,95411.50
2023-04-13T06:01:18.446Z,95411.50
2023-04-13T06:03:47.169Z,95424.50
2023-04-13T06:06:17.477Z,95418.59
2023-04-13T06:08:45.947Z,95413.84
2023-04-13T06:11:15.516Z,95429.47
2023-04-13T06:13:43.848Z,95431.09
2023-04-13T06:16:15.487Z,95428.31
2023-04-13T06:18:43.942Z,95435.69
2023-04-13T06:21:15.540Z,95436.97
2023-04-13T06:23:43.944Z,95435.81
2023-04-13T06:26:13.453Z,95440.06
2023-04-13T06:28:42.888Z,95446.34
2023-04-13T06:31:14.452Z,95442.88
2023-04-13T06:33:44.522Z,95451.47
2023-04-13T06:36:13.442Z,95452.44
2023-04-13T06:38:42.052Z,95451.09
2023-04-13T06:41:10.537Z,95452.75
2023-04-13T06:43:39.016Z,95452.38
2023-04-13T06:46:07.921Z,95456.31
2023-04-13T06:48:36.468Z,95450.53
2023-04-13T06:51:07.527Z,95452.63
2023-04-13T06:53:35.892Z,95455.59
2023-04-13T06:56:04.252Z,95449.78
2023-04-13T06:58:32.724Z,95446.97
2023-04-13T07:01:01.161Z,95452.06
2023-04-13T07:03:29.744Z,95439.53
2023-04-13T07:05:58.574Z,95453.00
2023-04-13T07:08:28.413Z,95454.31
2023-04-13T07:10:57.963Z,95457.38
2023-04-13T07:13:27.083Z,95458.88
2023-04-13T07:15:55.637Z,95451.59
2023-04-13T07:18:34.071Z,95457.16
2023-04-13T07:21:02.773Z,95455.16
2023-04-13T07:23:34.030Z,95462.72
2023-04-13T07:26:02.469Z,95461.53
2023-04-13T07:28:30.943Z,95455.13
2023-04-13T07:30:59.504Z,95469.28
2023-04-13T07:33:27.969Z,95465.34
2023-04-13T07:35:56.370Z,95469.19
2023-04-13T07:38:24.882Z,95464.88
2023-04-13T07:40:54.625Z,95460.63
2023-04-13T07:43:25.373Z,95463.72
2023-04-13T07:45:53.884Z,95461.06
2023-04-13T07:48:22.338Z,95457.53
2023-04-13T07:50:50.765Z,95455.81
2023-04-13T07:53:19.214Z,95457.03
2023-04-13T07:55:47.594Z,95462.56
2023-04-13T07:58:17.533Z,95456.97
2023-04-13T08:00:46.471Z,95449.97
2023-04-13T08:03:14.959Z,95449.88
2023-04-13T08:05:45.607Z,95449.28
2023-04-13T08:08:16.494Z,95442.88
2023-04-13T08:10:44.848Z,95437.53
2023-04-13T08:13:13.216Z,95443.63
2023-04-13T08:15:43.148Z,95445.16
2023-04-13T08:18:11.774Z,95463.47
2023-04-13T08:20:40.325Z,95446.38
2023-04-13T08:23:09.643Z,95443.72
2023-04-13T08:25:40.748Z,95445.09
2023-04-13T08:28:09.636Z,95447.78
2023-04-13T08:30:38.164Z,95453.53
2023-04-13T08:33:08.057Z,95444.53
2023-04-13T08:35:39.172Z,95445.00
2023-04-13T08:38:09.109Z,95436.97
2023-04-13T08:40:39.614Z,95429.59
2023-04-13T08:43:08.314Z,95428.84
2023-04-13T08:45:37.555Z,95430.50
2023-04-13T08:48:10.961Z,95423.22
2023-04-13T08:50:39.765Z,95425.50
2023-04-13T08:53:08.617Z,95422.75
2023-04-13T08:55:44.216Z,95424.63
2023-04-13T08:58:15.506Z,95423.25
2023-04-13T09:00:45.905Z,95426.94
2023-04-13T09:03:21.369Z,95424.19
2023-04-13T09:05:55.175Z,95422.75
2023-04-13T09:08:24.295Z,95421.09
2023-04-13T09:10:53.030Z,95414.81
2023-04-13T09:13:21.930Z,95411.56
2023-04-13T09:15:50.488Z,95417.91
2023-04-13T09:18:20.301Z,95408.22
2023-04-13T09:20:56.680Z,95395.38
2023-04-13T09:23:25.462Z,95396.25
2023-04-13T09:26:05.454Z,95396.19
2023-04-13T09:28:33.886Z,95387.19
2023-04-13T09:31:05.941Z,95393.84
2023-04-13T09:33:47.004Z,95393.47
2023-04-13T09:36:17.431Z,95387.31
2023-04-13T09:38:46.962Z,95372.91
2023-04-13T09:41:15.815Z,95381.69
2023-04-13T09:43:44.213Z,95378.31
2023-04-13T09:46:17.509Z,95375.94
2023-04-13T09:48:47.491Z,95366.97
2023-04-13T09:51:20.328Z,95367.53
2023-04-13T09:53:50.166Z,95368.88
2023-04-13T09:56:20.177Z,95353.16
2023-04-13T09:58:49.124Z,95351.75
2023-04-13T10:01:19.669Z,95353.69
2023-04-13T10:03:49.573Z,95340.72
2023-04-13T10:06:21.075Z,95342.59
2023-04-13T10:08:49.779Z,95341.75
2023-04-13T10:11:18.905Z,95338.28
2023-04-13T10:13:53.109Z,95333.31
2023-04-13T10:16:58.386Z,95330.34
2023-04-13T10:19:31.948Z,95325.44
2023-04-13T10:22:01.355Z,95319.22
2023-04-13T10:24:30.059Z,95311.00
2023-04-13T10:27:01.748Z,95314.75
2023-04-13T10:29:30.775Z,95325.94
2023-04-13T10:32:03.607Z,95331.06
2023-04-13T10:34:35.816Z,95314.22
2023-04-13T10:37:06.642Z,95314.22
2023-04-13T10:39:37.761Z,95314.03
2023-04-13T10:42:07.882Z,95311.84
2023-04-13T10:44:43.611Z,95315.97
2023-04-13T10:47:12.538Z,95312.94
2023-04-13T10:49:43.026Z,95312.34
2023-04-13T10:52:12.065Z,95314.97
2023-04-13T10:54:42.265Z,95322.31
2023-04-13T10:57:12.272Z,95310.91
2023-04-13T10:59:56.289Z,95312.06
2023-04-13T11:02:31.499Z,95312.28
2023-04-13T11:05:02.252Z,95315.09
2023-04-13T11:07:31.529Z,95312.47
2023-04-13T11:12:34.887Z,95313.63
2023-04-13T11:15:03.362Z,95303.44
2023-04-13T11:17:31.812Z,95313.97
2023-04-13T11:20:04.439Z,95303.19
2023-04-13T11:22:37.096Z,95306.63
2023-04-13T11:25:09.946Z,95313.09
2023-04-13T11:27:44.872Z,95315.72
2023-04-13T11:30:13.907Z,95311.00
2023-04-13T11:32:50.337Z,95309.53
2023-04-13T11:35:22.366Z,95313.34
2023-04-13T11:37:53.999Z,95317.81
2023-04-13T11:40:24.254Z,95329.44
2023-04-13T11:42:54.412Z,95325.94
2023-04-13T11:45:25.875Z,95320.66
2023-04-13T11:47:55.230Z,95326.78
2023-04-13T11:50:25.539Z,95326.97
2023-04-13T11:53:04.477Z,95335.91
2023-04-13T11:55:46.097Z,95336.53
2023-04-13T11:58:22.845Z,95327.16
2023-04-13T12:00:51.459Z,95334.47
2023-04-13T12:06:02.418Z,95324.06
2023-04-13T12:08:32.127Z,95333.84
2023-04-13T12:13:47.137Z,95329.91
2023-04-13T12:16:45.270Z,95336.81
2023-04-13T12:19:16.623Z,95342.88
2023-04-13T12:21:55.877Z,95334.31
2023-04-13T12:24:33.672Z,95341.63
2023-04-13T12:29:41.373Z,95335.97
2023-04-13T12:32:14.567Z,95338.00
2023-04-13T12:34:44.099Z,95335.34
2023-04-13T12:37:13.890Z,95340.63
2023-04-13T12:39:43.336Z,95341.66
2023-04-13T12:42:12.149Z,95341.19
2023-04-13T12:44:40.613Z,95343.94
2023-04-13T12:47:09.078Z,95346.00
2023-04-13T12:49:38.070Z,95337.47
2023-04-13T12:52:07.028Z,95339.84
2023-04-13T12:54:38.158Z,95333.31
2023-04-13T12:57:07.729Z,95339.03
2023-04-13T12:59:36.286Z,95337.84
2023-04-13T13:02:04.829Z,95339.94
2023-04-13T13:04:33.278Z,95340.78
2023-04-13T13:07:01.910Z,95332.22
2023-04-13T13:09:32.115Z,95329.84
2023-04-13T13:12:02.598Z,95333.69
2023-04-13T13:14:32.096Z,95338.53
2023-04-13T13:17:00.856Z,95337.53
2023-04-13T13:19:29.235Z,95336.53
2023-04-13T13:21:57.674Z,95334.25
2023-04-13T13:24:27.795Z,95332.22
2023-04-13T13:29:33.195Z,95335.91
2023-04-13T13:32:01.895Z,95340.38
2023-04-13T13:34:30.594Z,95335.44
2023-04-13T13:36:59.004Z,95342.75
2023-04-13T13:39:27.440Z,95342.94
2023-04-13T13:41:58.561Z,95321.09
2023-04-13T13:44:28.432Z,95320.66
2023-04-13T13:46:56.802Z,95319.22
2023-04-13T13:49:25.452Z,95321.88
2023-04-13T13:51:54.244Z,95321.06
2023-04-13T13:54:22.845Z,95331.44
2023-04-13T13:56:51.641Z,95318.63
2023-04-13T13:59:21.442Z,95322.75
2023-04-13T14:01:51.502Z,95329.03
2023-04-13T14:04:22.003Z,95333.06
2023-04-13T14:06:50.634Z,95341.59
2023-04-13T14:09:21.222Z,95336.13
2023-04-13T14:11:50.585Z,95334.75
2023-04-13T14:14:22.365Z,95341.00
2023-04-13T14:16:52.628Z,95344.84
2023-04-13T14:19:23.864Z,95345.84
2023-04-13T14:21:56.566Z,95345.53
2023-04-13T14:24:26.433Z,95337.03
2023-04-13T14:26:55.150Z,95335.63
2023-04-13T14:29:23.607Z,95342.53
2023-04-13T14:31:53.702Z,95341.38
2023-04-13T14:34:22.122Z,95348.81
2023-04-13T14:36:53.705Z,95345.22
2023-04-13T14:39:25.925Z,95341.19
2023-04-13T14:41:56.421Z,95333.88
2023-04-13T14:44:25.507Z,95324.16
2023-04-13T14:47:00.944Z,95299.47
2023-04-13T14:49:29.379Z,95268.91
2023-04-13T14:51:57.764Z,95272.31
2023-04-13T14:54:26.450Z,95299.97
2023-04-13T14:56:55.012Z,95320.66
2023-04-13T14:59:25.094Z,95347.69
2023-04-13T15:01:53.804Z,95373.31
2023-04-13T15:04:23.706Z,95373.34
2023-04-13T15:06:54.350Z,95384.66
2023-04-13T15:09:23.084Z,95391.19
2023-04-13T15:11:51.941Z,95383.16
2023-04-13T15:14:21.097Z,95384.88
2023-04-13T15:16:49.518Z,95375.56
2023-04-13T15:19:17.947Z,95373.94
2023-04-13T15:21:47.984Z,95368.13
2023-04-13T15:24:16.427Z,95375.28
2023-04-13T15:26:44.846Z,95375.47
2023-04-13T15:29:13.440Z,95385.38
2023-04-13T15:31:41.977Z,95384.28
2023-04-13T15:34:10.528Z,95392.03
2023-04-13T15:36:39.682Z,95390.91
2023-04-13T15:39:09.548Z,95386.59
2023-04-13T15:41:39.916Z,95396.50
2023-04-13T15:44:08.262Z,95389.09
2023-04-13T15:46:37.307Z,95388.88
2023-04-13T15:49:05.855Z,95385.13
2023-04-13T15:51:34.191Z,95383.50
2023-04-13T15:54:02.846Z,95387.50
2023-04-13T15:56:32.999Z,95382.06
2023-04-13T15:59:01.638Z,95386.50
2023-04-13T16:01:44.597Z,95382.09
2023-04-13T16:04:13.338Z,95382.16
2023-04-13T16:06:42.116Z,95384.44
2023-04-13T16:09:10.905Z,95384.97
2023-04-13T16:11:42.193Z,95386.13
2023-04-13T16:14:10.713Z,95391.88
2023-04-13T16:16:46.593Z,95389.88
2023-04-13T16:19:18.729Z,95385.97
2023-04-13T16:21:50.890Z,95394.84
2023-04-13T16:24:21.876Z,95399.66
2023-04-13T16:26:51.863Z,95402.16
2023-04-13T16:29:22.762Z,95405.31
2023-04-13T16:31:51.194Z,95406.59
2023-04-13T16:34:26.208Z,95405.44
2023-04-13T16:36:55.198Z,95406.59
2023-04-13T16:39:23.574Z,95410.88
2023-04-13T16:41:53.380Z,95408.22
2023-04-13T16:44:23.064Z,95413.16
2023-04-13T16:46:51.463Z,95410.38
2023-04-13T16:49:22.333Z,95411.34
2023-04-13T16:51:52.098Z,95416.28
2023-04-13T16:54:21.173Z,95410.19
2023-04-13T16:56:49.632Z,95411.00
2023-04-13T16:59:19.676Z,95409.66
2023-04-13T17:01:48.076Z,95410.47
2023-04-13T17:04:16.593Z,95407.03
2023-04-13T17:06:47.365Z,95399.94
2023-04-13T17:09:15.843Z,95393.88
2023-04-13T17:11:44.220Z,95399.13
2023-04-13T17:14:12.710Z,95395.50
2023-04-13T17:16:42.478Z,95391.06
2023-04-13T17:19:10.900Z,95392.03
2023-04-13T17:21:41.447Z,95388.44
2023-04-13T17:24:10.108Z,95393.22
2023-04-13T17:26:38.525Z,95395.84
2023-04-13T17:29:07.005Z,95392.56
2023-04-13T17:31:35.751Z,95391.94
2023-04-13T17:34:05.594Z,95392.44
2023-04-13T17:36:34.017Z,95392.97
2023-04-13T17:39:02.561Z,95396.56
2023-04-13T17:41:31.260Z,95390.66
2023-04-13T17:43:59.762Z,95401.84
2023-04-13T17:46:29.788Z,95395.59
2023-04-13T17:48:58.502Z,95399.91
2023-04-13T17:51:29.019Z,95405.69
2023-04-13T17:53:57.493Z,95403.41
2023-04-13T17:56:26.123Z,95405.38
2023-04-13T17:58:54.555Z,95411.81
2023-04-13T18:01:25.829Z,95406.44
2023-04-13T18:03:54.489Z,95417.63
2023-04-13T18:06:24.272Z,95410.72
2023-04-13T18:08:54.228Z,95414.50
2023-04-13T18:11:23.526Z,95421.75
2023-04-13T18:13:51.963Z,95421.09
2023-04-13T18:16:20.482Z,95425.53
2023-04-13T18:18:49.073Z,95434.75
2023-04-13T18:21:19.296Z,95420.97
2023-04-13T18:23:47.846Z,95419.31
2023-04-13T18:26:17.695Z,95425.75
2023-04-13T18:28:46.070Z,95425.25
2023-04-13T18:31:14.613Z,95418.69
2023-04-13T18:33:44.100Z,95418.84
2023-04-13T18:36:15.356Z,95415.56
2023-04-13T18:38:43.917Z,95416.75
2023-04-13T18:41:12.694Z,95414.78
2023-04-13T18:43:42.464Z,95414.31
2023-04-13T18:46:11.374Z,95412.19
2023-04-13T18:48:39.905Z,95414.81
2023-04-13T18:51:09.918Z,95417.09
2023-04-13T18:53:38.739Z,95427.63
2023-04-13T18:56:07.298Z,95432.88
2023-04-13T18:58:35.754Z,95423.81
2023-04-13T19:01:05.608Z,95426.44
2023-04-13T19:03:34.182Z,95447.66
2023-04-13T19:06:02.607Z,95459.84
2023-04-13T19:08:31.000Z,95448.81
2023-04-13T19:10:59.648Z,95445.53
2023-04-13T19:13:28.119Z,95449.13
2023-04-13T19:15:57.740Z,95452.28
2023-04-13T19:18:27.617Z,95446.38
2023-04-13T19:20:56.523Z,95436.50
2023-04-13T19:23:26.523Z,95448.50
2023-04-13T19:25:54.956Z,95445.22
2023-04-13T19:28:26.330Z,95444.56
2023-04-13T19:30:55.150Z,95465.28
2023-04-13T19:33:24.679Z,95461.00
2023-04-13T19:35:54.380Z,95459.03
2023-04-13T19:38:23.675Z,95447.22
2023-04-13T19:40:52.026Z,95449.50
2023-04-13T19:43:23.625Z,95432.41
2023-04-13T19:45:52.235Z,95434.88
2023-04-13T19:48:20.753Z,95449.19
2023-04-13T19:50:49.266Z,95445.38
2023-04-13T19:53:19.074Z,95439.97
2023-04-13T19:55:47.523Z,95427.16
2023-04-13T19:58:16.898Z,95431.91
2023-04-13T20:00:54.090Z,95428.13
2023-04-13T20:03:23.764Z,95427.78
2023-04-13T20:05:52.412Z,95416.31
2023-04-13T20:08:22.794Z,95417.28
2023-04-13T20:10:51.497Z,95427.47
2023-04-13T20:13:20.001Z,95427.63
2023-04-13T20:15:48.514Z,95418.56
2023-04-13T20:18:17.437Z,95426.63
2023-04-13T20:20:46.652Z,95436.78
2023-04-13T20:23:15.283Z,95448.78
2023-04-13T20:25:45.080Z,95446.44
2023-04-13T20:28:13.544Z,95461.25
2023-04-13T20:30:41.956Z,95459.78
2023-04-13T20:33:10.583Z,95456.97
2023-04-13T20:35:39.083Z,95462.06
2023-04-13T20:38:07.459Z,95456.81
2023-04-13T20:40:36.378Z,95454.69
2023-04-13T20:43:06.335Z,95449.09
2023-04-13T20:45:36.278Z,95450.94
2023-04-13T20:50:36.403Z,95435.34
2023-04-13T20:53:05.420Z,95439.44
2023-04-13T20:55:33.814Z,95435.66
2023-04-13T20:58:02.337Z,95426.28
2023-04-13T21:00:34.833Z,95424.47
2023-04-13T21:03:04.213Z,95422.34
2023-04-13T21:05:33.164Z,95414.97
2023-04-13T21:08:01.647Z,95407.41
2023-04-13T21:10:30.091Z,95411.06
2023-04-13T21:12:58.484Z,95411.38
2023-04-13T21:15:26.901Z,95403.50
2023-04-13T21:17:56.682Z,95404.19
2023-04-13T21:20:26.186Z,95412.22
2023-04-13T21:22:54.602Z,95409.91
2023-04-13T21:25:23.043Z,95414.03
2023-04-13T21:27:51.495Z,95416.16
2023-04-13T21:30:19.987Z,95418.28
2023-04-13T21:32:49.127Z,95416.13
2023-04-13T21:35:19.514Z,95405.16
2023-04-13T21:37:47.971Z,95410.84
2023-04-13T21:40:18.151Z,95412.19
2023-04-13T21:42:46.543Z,95406.09
2023-04-13T21:45:15.010Z,95403.63
2023-04-13T21:47:43.461Z,95399.53
2023-04-13T21:50:12.173Z,95397.06
2023-04-13T21:52:47.672Z,95396.41
2023-04-13T21:55:18.930Z,95397.91
2023-04-13T21:57:47.889Z,95398.91
2023-04-13T22:00:17.905Z,95402.34
2023-04-13T22:02:46.445Z,95399.22
2023-04-13T22:05:26.435Z,95397.94
2023-04-13T22:07:56.513Z,95397.94
2023-04-13T22:10:26.327Z,95399.56
2023-04-13T22:12:54.682Z,95403.34
2023-04-13T22:15:23.072Z,95404.34
2023-04-13T22:17:58.276Z,95410.59
2023-04-13T22:20:28.141Z,95406.16
2023-04-13T22:23:01.139Z,95400.44
2023-04-13T22:25:29.557Z,95403.38
2023-04-13T22:27:57.925Z,95405.19
2023-04-13T22:30:27.378Z,95401.09
2023-04-13T22:32:55.771Z,95402.72
2023-04-13T22:35:24.754Z,95401.59
2023-04-13T22:37:53.474Z,95407.16
2023-04-13T22:40:23.308Z,95402.22
2023-04-13T22:42:53.971Z,95407.47
2023-04-13T22:45:22.471Z,95401.41
2023-04-13T22:47:53.944Z,95401.25
2023-04-13T22:50:22.396Z,95396.00
2023-04-13T22:52:50.750Z,95396.13
2023-04-13T22:55:20.670Z,95397.94
2023-04-13T22:57:50.736Z,95406.84
2023-04-13T23:00:20.783Z,95405.84
2023-04-13T23:02:50.530Z,95403.03
2023-04-13T23:05:19.352Z,95400.41
2023-04-13T23:07:47.707Z,95402.06
2023-04-13T23:10:17.187Z,95397.59
2023-04-13T23:12:45.793Z,95399.75
2023-04-13T23:15:15.852Z,95392.72
2023-04-13T23:17:44.254Z,95389.59
2023-04-13T23:20:12.982Z,95391.72
2023-04-13T23:22:45.537Z,95388.25
2023-04-13T23:25:14.037Z,95393.50
2023-04-13T23:27:42.455Z,95396.16
2023-04-13T23:30:11.974Z,95399.28
2023-04-13T23:32:45.695Z,95401.25
2023-04-13T23:35:14.111Z,95399.28
2023-04-13T23:37:46.555Z,95399.13
2023-04-13T23:40:15.178Z,95397.16
2023-04-13T23:42:53.566Z,95396.97
2023-04-13T23:45:22.437Z,95394.19
2023-04-13T23:47:52.430Z,95393.53
2023-04-13T23:50:21.528Z,95397.13
2023-04-13T23:52:49.886Z,95392.38
2023-04-13T23:55:18.271Z,95398.91
2023-04-13T23:57:46.700Z,95389.38
